createdAt,value
2017-11-22T00:00:41.611Z,16.80
2017-11-22T00:03:09.128Z,16.80
2017-11-22T00:05:37.491Z,16.80
2017-11-22T00:08:05.772Z,16.80
2017-11-22T00:10:34.062Z,16.80
2017-11-22T00:13:01.590Z,16.80
2017-11-22T00:15:29.114Z,16.80
2017-11-22T00:17:56.625Z,16.80
2017-11-22T00:20:24.947Z,16.80
2017-11-22T00:22:52.484Z,16.80
2017-11-22T00:25:20.003Z,16.80
2017-11-22T00:27:48.351Z,16.80
2017-11-22T00:30:15.895Z,16.70
2017-11-22T00:32:43.427Z,16.80
2017-11-22T00:35:11.058Z,16.70
2017-11-22T00:37:38.595Z,16.70
2017-11-22T00:40:06.140Z,16.70
2017-11-22T00:42:33.726Z,16.70
2017-11-22T00:45:01.259Z,16.70
2017-11-22T00:47:28.770Z,16.80
2017-11-22T00:49:57.393Z,16.70
2017-11-22T00:52:25.296Z,16.70
2017-11-22T00:54:52.831Z,16.70
2017-11-22T00:57:20.379Z,16.70
2017-11-22T00:59:47.897Z,16.70
2017-11-22T01:02:16.198Z,16.70
2017-11-22T01:04:43.763Z,16.70
2017-11-22T01:07:11.295Z,16.70
2017-11-22T01:09:39.580Z,16.70
2017-11-22T01:12:07.906Z,16.70
2017-11-22T01:14:35.439Z,16.70
2017-11-22T01:17:02.969Z,16.70
2017-11-22T01:19:31.285Z,16.70
2017-11-22T01:21:59.195Z,16.70
2017-11-22T01:24:26.726Z,16.70
2017-11-22T01:26:54.263Z,16.70
2017-11-22T01:29:21.775Z,16.70
2017-11-22T01:31:49.284Z,16.70
2017-11-22T01:34:16.859Z,16.70
2017-11-22T01:36:44.371Z,16.70
2017-11-22T01:39:11.866Z,16.70
2017-11-22T01:41:39.415Z,16.70
2017-11-22T01:44:06.923Z,16.70
2017-11-22T01:46:34.451Z,16.70
2017-11-22T01:49:01.989Z,16.70
2017-11-22T01:51:29.499Z,16.70
2017-11-22T01:53:57.027Z,16.70
2017-11-22T01:56:24.630Z,16.70
2017-11-22T01:58:52.175Z,16.70
2017-11-22T02:01:19.714Z,16.70
2017-11-22T02:03:47.286Z,16.70
2017-11-22T02:06:14.823Z,16.60
2017-11-22T02:08:42.364Z,16.70
2017-11-22T02:11:09.932Z,16.60
2017-11-22T02:13:37.445Z,16.70
2017-11-22T02:16:04.965Z,16.70
2017-11-22T02:18:32.527Z,16.60
2017-11-22T02:21:00.051Z,16.60
2017-11-22T02:23:28.323Z,16.60
2017-11-22T02:25:56.662Z,16.60
2017-11-22T02:28:24.167Z,16.60
2017-11-22T02:30:51.686Z,16.60
2017-11-22T02:33:19.241Z,16.60
2017-11-22T02:35:48.289Z,16.60
2017-11-22T02:38:15.806Z,16.60
2017-11-22T02:40:43.335Z,16.60
2017-11-22T02:43:10.841Z,16.60
2017-11-22T02:45:38.345Z,16.60
2017-11-22T02:48:05.902Z,16.60
2017-11-22T02:50:33.410Z,16.60
2017-11-22T02:53:00.909Z,16.60
2017-11-22T02:55:28.997Z,16.60
2017-11-22T02:57:56.505Z,16.60
2017-11-22T03:00:24.019Z,16.60
2017-11-22T03:02:51.591Z,16.60
2017-11-22T03:05:19.134Z,16.60
2017-11-22T03:07:46.638Z,16.60
2017-11-22T03:10:14.187Z,16.60
2017-11-22T03:12:42.468Z,16.60
2017-11-22T03:15:10.091Z,16.60
2017-11-22T03:17:37.651Z,16.60
2017-11-22T03:20:05.620Z,16.60
2017-11-22T03:22:33.147Z,16.60
2017-11-22T03:25:01.516Z,16.60
2017-11-22T03:27:29.820Z,16.60
2017-11-22T03:29:57.371Z,16.60
2017-11-22T03:32:24.919Z,16.60
2017-11-22T03:34:53.215Z,16.60
2017-11-22T03:37:20.730Z,16.60
2017-11-22T03:39:48.295Z,16.60
2017-11-22T03:42:16.577Z,16.50
2017-11-22T03:44:44.081Z,16.50
2017-11-22T03:47:11.625Z,16.50
2017-11-22T03:49:44.800Z,16.60
2017-11-22T03:52:18.868Z,16.50
2017-11-22T03:54:46.377Z,16.50
2017-11-22T03:57:14.672Z,16.50
2017-11-22T03:59:42.249Z,16.50
2017-11-22T04:02:09.756Z,16.50
2017-11-22T04:04:37.279Z,16.60
2017-11-22T04:07:04.823Z,16.50
2017-11-22T04:09:32.343Z,16.50
2017-11-22T04:12:00.619Z,16.50
2017-11-22T04:14:28.944Z,16.50
2017-11-22T04:16:56.454Z,16.50
2017-11-22T04:19:27.670Z,16.50
2017-11-22T04:21:55.614Z,16.50
2017-11-22T04:24:23.147Z,16.50
2017-11-22T04:26:50.679Z,16.50
2017-11-22T04:29:19.021Z,16.50
2017-11-22T04:31:46.567Z,16.50
2017-11-22T04:34:14.092Z,16.50
2017-11-22T04:36:42.400Z,16.50
2017-11-22T04:39:09.936Z,16.50
2017-11-22T04:41:37.451Z,16.50
2017-11-22T04:44:05.000Z,16.50
2017-11-22T04:46:32.952Z,16.50
2017-11-22T04:49:00.484Z,16.50
2017-11-22T04:51:28.028Z,16.50
2017-11-22T04:53:56.299Z,16.50
2017-11-22T04:56:24.603Z,16.50
2017-11-22T04:58:52.156Z,16.50
2017-11-22T05:01:20.447Z,16.50
2017-11-22T05:03:47.978Z,16.40
2017-11-22T05:06:16.279Z,16.50
2017-11-22T05:08:43.800Z,16.50
2017-11-22T05:11:11.332Z,16.30
2017-11-22T05:13:38.907Z,16.50
2017-11-22T05:16:06.418Z,16.50
2017-11-22T05:18:33.922Z,16.50
2017-11-22T05:21:01.456Z,16.50
2017-11-22T05:23:28.992Z,16.40
2017-11-22T05:25:56.528Z,16.50
2017-11-22T05:28:25.260Z,16.40
2017-11-22T05:30:52.790Z,16.40
2017-11-22T05:33:21.082Z,16.50
2017-11-22T05:35:48.611Z,16.40
2017-11-22T05:38:16.108Z,16.40
2017-11-22T05:40:43.616Z,16.40
2017-11-22T05:43:11.584Z,16.40
2017-11-22T05:45:39.096Z,16.40
2017-11-22T05:48:06.618Z,16.40
2017-11-22T05:50:34.967Z,16.40
2017-11-22T05:53:02.508Z,16.40
2017-11-22T05:55:30.019Z,16.50
2017-11-22T05:57:58.328Z,16.40
2017-11-22T06:00:26.763Z,16.40
2017-11-22T06:02:55.041Z,16.40
2017-11-22T06:05:22.617Z,16.40
2017-11-22T06:07:50.919Z,16.50
2017-11-22T06:10:18.441Z,16.40
2017-11-22T06:12:46.743Z,16.40
2017-11-22T06:15:14.272Z,16.40
2017-11-22T06:17:42.587Z,16.40
2017-11-22T06:20:10.151Z,16.40
2017-11-22T06:22:38.048Z,16.40
2017-11-22T06:25:05.558Z,16.40
2017-11-22T06:27:33.887Z,16.40
2017-11-22T06:30:01.407Z,16.40
2017-11-22T06:32:28.914Z,16.40
2017-11-22T06:34:56.478Z,16.40
2017-11-22T06:37:24.010Z,16.40
2017-11-22T06:39:51.527Z,16.40
2017-11-22T06:42:20.250Z,16.40
2017-11-22T06:44:47.760Z,16.40
2017-11-22T06:47:16.054Z,16.40
2017-11-22T06:49:44.840Z,16.40
2017-11-22T06:52:12.363Z,16.40
2017-11-22T06:54:39.869Z,16.40
2017-11-22T06:57:07.435Z,16.40
2017-11-22T06:59:34.949Z,16.40
2017-11-22T07:02:02.475Z,16.40
2017-11-22T07:04:30.031Z,16.40
2017-11-22T07:06:57.591Z,16.40
2017-11-22T07:09:25.116Z,16.40
2017-11-22T07:11:53.434Z,16.40
2017-11-22T07:14:20.949Z,16.30
2017-11-22T07:16:54.960Z,16.40
2017-11-22T07:19:23.252Z,16.40
2017-11-22T07:21:50.759Z,16.40
2017-11-22T07:24:18.327Z,16.30
2017-11-22T07:26:45.839Z,16.40
2017-11-22T07:29:13.367Z,16.30
2017-11-22T07:31:41.690Z,16.40
2017-11-22T07:34:09.217Z,16.40
2017-11-22T07:36:42.919Z,16.40
2017-11-22T07:39:11.243Z,16.30
2017-11-22T07:41:38.784Z,16.30
2017-11-22T07:44:06.356Z,16.40
2017-11-22T07:46:33.893Z,16.30
2017-11-22T07:49:01.435Z,16.30
2017-11-22T07:51:35.591Z,16.30
2017-11-22T07:54:03.147Z,16.30
2017-11-22T07:56:33.353Z,16.40
2017-11-22T07:59:16.992Z,16.30
2017-11-22T08:01:44.537Z,16.40
2017-11-22T08:04:17.744Z,16.30
2017-11-22T08:06:45.277Z,16.40
2017-11-22T08:09:13.584Z,16.30
2017-11-22T08:11:41.160Z,16.30
2017-11-22T08:14:08.684Z,16.30
2017-11-22T08:16:36.226Z,16.30
2017-11-22T08:19:04.586Z,16.30
2017-11-22T08:21:32.104Z,16.30
2017-11-22T08:23:59.664Z,16.30
2017-11-22T08:26:27.671Z,16.30
2017-11-22T08:28:56.691Z,16.30
2017-11-22T08:31:25.108Z,16.30
2017-11-22T08:33:52.730Z,16.30
2017-11-22T08:36:21.076Z,16.30
2017-11-22T08:38:48.592Z,16.30
2017-11-22T08:41:16.152Z,16.30
2017-11-22T08:43:43.680Z,16.30
2017-11-22T08:46:12.011Z,16.30
2017-11-22T08:48:39.583Z,16.30
2017-11-22T08:51:07.132Z,16.30
2017-11-22T08:53:34.685Z,16.30
2017-11-22T08:56:08.119Z,16.30
2017-11-22T08:58:36.158Z,16.30
2017-11-22T09:01:03.692Z,16.30
2017-11-22T09:03:37.423Z,16.30
2017-11-22T09:06:11.107Z,16.30
2017-11-22T09:08:38.691Z,16.30
2017-11-22T09:11:06.350Z,16.30
2017-11-22T09:13:33.891Z,16.30
2017-11-22T09:16:01.468Z,16.30
2017-11-22T09:18:38.775Z,16.30
2017-11-22T09:21:13.596Z,16.30
2017-11-22T09:23:41.112Z,16.30
2017-11-22T09:26:09.403Z,16.30
2017-11-22T09:28:36.946Z,16.30
2017-11-22T09:31:10.932Z,16.30
2017-11-22T09:33:38.509Z,16.20
2017-11-22T09:36:06.792Z,16.30
2017-11-22T09:38:35.075Z,16.30
2017-11-22T09:41:03.413Z,16.30
2017-11-22T09:43:30.935Z,16.30
2017-11-22T09:45:58.447Z,16.20
2017-11-22T09:48:26.028Z,16.30
2017-11-22T09:50:54.328Z,16.30
2017-11-22T09:53:21.843Z,16.20
2017-11-22T09:55:50.944Z,16.20
2017-11-22T09:58:18.458Z,16.30
2017-11-22T10:00:45.971Z,16.20
2017-11-22T10:03:14.296Z,16.20
2017-11-22T10:05:41.803Z,16.20
2017-11-22T10:08:10.116Z,16.20
2017-11-22T10:10:37.695Z,16.30
2017-11-22T10:13:05.206Z,16.20
2017-11-22T10:15:33.488Z,16.20
2017-11-22T10:18:06.759Z,16.20
2017-11-22T10:20:34.304Z,16.20
2017-11-22T10:23:01.879Z,16.20
2017-11-22T10:25:29.467Z,16.20
2017-11-22T10:28:11.535Z,16.20
2017-11-22T10:30:41.701Z,16.20
2017-11-22T10:33:14.199Z,16.20
2017-11-22T10:35:41.774Z,16.20
2017-11-22T10:38:09.296Z,16.20
2017-11-22T10:40:36.875Z,16.20
2017-11-22T10:43:04.406Z,16.20
2017-11-22T10:45:31.947Z,16.20
2017-11-22T10:48:00.278Z,16.20
2017-11-22T10:50:27.842Z,16.20
2017-11-22T10:52:55.380Z,16.20
2017-11-22T10:55:22.904Z,16.20
2017-11-22T10:57:50.464Z,16.20
2017-11-22T11:00:18.757Z,16.20
2017-11-22T11:02:47.036Z,16.20
2017-11-22T11:05:14.592Z,16.20
2017-11-22T11:07:42.914Z,16.20
2017-11-22T11:10:10.419Z,16.20
2017-11-22T11:12:38.730Z,16.20
2017-11-22T11:15:06.264Z,16.10
2017-11-22T11:17:34.567Z,16.20
2017-11-22T11:20:02.125Z,16.20
2017-11-22T11:22:29.642Z,16.20
2017-11-22T11:24:57.616Z,16.20
2017-11-22T11:27:25.955Z,16.20
2017-11-22T11:29:53.507Z,16.20
2017-11-22T11:32:21.041Z,16.20
2017-11-22T11:34:48.587Z,16.20
2017-11-22T11:37:17.410Z,16.20
2017-11-22T11:39:44.959Z,16.20
2017-11-22T11:42:12.526Z,16.20
2017-11-22T11:44:40.047Z,16.20
2017-11-22T11:47:08.351Z,16.20
2017-11-22T11:49:35.903Z,16.20
2017-11-22T11:52:03.419Z,16.20
2017-11-22T11:54:30.962Z,16.20
2017-11-22T11:56:58.530Z,16.20
2017-11-22T11:59:33.226Z,16.10
2017-11-22T12:02:09.384Z,16.20
2017-11-22T12:04:37.954Z,16.20
2017-11-22T12:07:05.494Z,16.20
2017-11-22T12:09:33.808Z,16.20
2017-11-22T12:12:01.341Z,16.20
2017-11-22T12:14:28.886Z,16.10
2017-11-22T12:16:57.219Z,16.20
2017-11-22T12:19:24.770Z,16.10
2017-11-22T12:21:57.928Z,16.10
2017-11-22T12:24:26.237Z,16.20
2017-11-22T12:26:53.789Z,16.10
2017-11-22T12:29:21.363Z,16.20
2017-11-22T12:31:48.887Z,16.10
2017-11-22T12:34:16.395Z,16.20
2017-11-22T12:36:43.939Z,16.10
2017-11-22T12:39:11.483Z,16.10
2017-11-22T12:41:39.076Z,16.20
2017-11-22T12:44:10.125Z,16.10
2017-11-22T12:46:37.631Z,16.10
2017-11-22T12:49:05.150Z,16.10
2017-11-22T12:51:32.727Z,16.20
2017-11-22T12:54:01.033Z,16.10
2017-11-22T12:56:28.621Z,16.10
2017-11-22T12:58:56.179Z,16.20
2017-11-22T13:01:23.760Z,16.10
2017-11-22T13:03:51.328Z,16.20
2017-11-22T13:06:18.956Z,16.20
2017-11-22T13:08:46.516Z,16.20
2017-11-22T13:11:20.018Z,16.20
2017-11-22T13:13:47.555Z,16.20
2017-11-22T13:16:15.107Z,16.20
2017-11-22T13:18:42.683Z,16.20
2017-11-22T13:21:10.227Z,16.20
2017-11-22T13:23:38.520Z,16.20
2017-11-22T13:26:06.098Z,16.10
2017-11-22T13:28:33.657Z,16.20
2017-11-22T13:31:01.959Z,16.20
2017-11-22T13:33:29.543Z,16.10
2017-11-22T13:35:57.855Z,16.20
2017-11-22T13:38:25.371Z,16.10
2017-11-22T13:40:53.080Z,16.20
2017-11-22T13:43:20.603Z,16.20
2017-11-22T13:45:48.119Z,16.20
2017-11-22T13:48:15.727Z,16.20
2017-11-22T13:50:44.064Z,16.20
2017-11-22T13:53:11.609Z,16.10
2017-11-22T13:55:39.209Z,16.20
2017-11-22T13:58:06.782Z,16.20
2017-11-22T14:00:35.089Z,16.20
2017-11-22T14:03:02.767Z,16.10
2017-11-22T14:05:30.328Z,16.20
2017-11-22T14:07:57.887Z,16.20
2017-11-22T14:10:25.482Z,16.20
2017-11-22T14:12:53.076Z,16.20
2017-11-22T14:15:20.619Z,16.20
2017-11-22T14:17:48.963Z,16.20
2017-11-22T14:20:16.516Z,16.20
2017-11-22T14:22:44.060Z,16.20
2017-11-22T14:25:11.729Z,16.20
2017-11-22T14:27:39.266Z,16.20
2017-11-22T14:30:06.804Z,16.10
2017-11-22T14:32:35.151Z,16.20
2017-11-22T14:35:03.329Z,16.10
2017-11-22T14:37:31.628Z,16.20
2017-11-22T14:39:59.210Z,16.20
2017-11-22T14:42:26.760Z,16.20
2017-11-22T14:44:55.064Z,16.20
2017-11-22T14:47:22.740Z,16.10
2017-11-22T14:49:50.296Z,16.20
2017-11-22T14:52:18.286Z,16.20
2017-11-22T14:54:45.877Z,16.20
2017-11-22T14:57:14.194Z,16.20
2017-11-22T14:59:41.853Z,16.20
2017-11-22T15:02:09.445Z,16.20
2017-11-22T15:04:36.997Z,16.20
2017-11-22T15:07:04.551Z,16.20
2017-11-22T15:09:32.545Z,16.20
2017-11-22T15:12:00.103Z,16.20
2017-11-22T15:14:27.679Z,16.20
2017-11-22T15:16:55.272Z,16.20
2017-11-22T15:19:23.695Z,16.20
2017-11-22T15:21:51.260Z,16.20
2017-11-22T15:24:18.856Z,16.20
2017-11-22T15:26:47.173Z,16.20
2017-11-22T15:29:14.720Z,16.10
2017-11-22T15:31:42.304Z,16.20
2017-11-22T15:34:10.270Z,16.20
2017-11-22T15:36:37.798Z,16.20
2017-11-22T15:39:06.110Z,16.20
2017-11-22T15:41:33.685Z,16.10
2017-11-22T15:44:01.241Z,16.20
2017-11-22T15:46:29.593Z,16.20
2017-11-22T15:48:57.132Z,16.10
2017-11-22T15:51:24.684Z,16.20
2017-11-22T15:53:52.280Z,16.20
2017-11-22T15:56:19.815Z,16.20
2017-11-22T15:58:47.359Z,16.20
2017-11-22T16:01:15.699Z,16.20
2017-11-22T16:03:43.252Z,16.10
2017-11-22T16:06:10.776Z,16.20
2017-11-22T16:08:38.351Z,16.10
2017-11-22T16:11:05.868Z,16.20
2017-11-22T16:13:33.383Z,16.20
2017-11-22T16:16:00.928Z,16.20
2017-11-22T16:18:28.469Z,16.20
2017-11-22T16:20:56.008Z,16.10
2017-11-22T16:23:24.376Z,16.20
2017-11-22T16:25:51.884Z,16.10
2017-11-22T16:28:19.412Z,16.20
2017-11-22T16:30:46.969Z,16.10
2017-11-22T16:33:15.248Z,16.20
2017-11-22T16:35:43.552Z,16.20
2017-11-22T16:38:11.100Z,16.20
2017-11-22T16:40:38.639Z,16.20
2017-11-22T16:43:06.939Z,16.20
2017-11-22T16:45:34.512Z,16.20
2017-11-22T16:48:02.076Z,16.20
2017-11-22T16:50:29.954Z,16.20
2017-11-22T16:52:57.533Z,16.20
2017-11-22T16:55:25.074Z,16.20
2017-11-22T16:57:52.623Z,16.20
2017-11-22T17:00:20.186Z,16.20
2017-11-22T17:02:47.724Z,16.10
2017-11-22T17:05:15.259Z,16.20
2017-11-22T17:07:43.694Z,16.20
2017-11-22T17:10:11.981Z,16.20
2017-11-22T17:12:39.496Z,16.20
2017-11-22T17:15:07.814Z,16.20
2017-11-22T17:17:35.329Z,16.20
2017-11-22T17:20:04.203Z,16.20
2017-11-22T17:22:31.810Z,16.10
2017-11-22T17:24:59.384Z,16.10
2017-11-22T17:27:26.923Z,16.20
2017-11-22T17:29:54.480Z,16.20
2017-11-22T17:32:22.002Z,16.20
2017-11-22T17:34:49.576Z,16.20
2017-11-22T17:37:17.144Z,16.10
2017-11-22T17:39:44.742Z,16.20
2017-11-22T17:42:12.298Z,16.10
2017-11-22T17:44:39.913Z,16.20
2017-11-22T17:47:08.200Z,16.20
2017-11-22T17:49:36.481Z,16.20
2017-11-22T17:52:04.036Z,16.20
2017-11-22T17:54:32.361Z,16.20
2017-11-22T17:56:59.884Z,16.10
2017-11-22T17:59:27.471Z,16.20
2017-11-22T18:01:55.072Z,16.20
2017-11-22T18:04:23.528Z,16.20
2017-11-22T18:06:51.125Z,16.10
2017-11-22T18:09:19.416Z,16.20
2017-11-22T18:11:47.828Z,16.20
2017-11-22T18:14:15.384Z,16.20
2017-11-22T18:16:44.093Z,16.10
2017-11-22T18:19:11.684Z,16.20
2017-11-22T18:21:40.065Z,16.20
2017-11-22T18:24:08.360Z,16.20
2017-11-22T18:26:36.675Z,16.10
2017-11-22T18:29:04.264Z,16.10
2017-11-22T18:31:32.823Z,16.20
2017-11-22T18:34:00.376Z,16.10
2017-11-22T18:36:27.976Z,16.20
2017-11-22T18:38:55.495Z,16.20
2017-11-22T18:41:23.064Z,16.20
2017-11-22T18:43:51.106Z,16.20
2017-11-22T18:46:18.642Z,16.20
2017-11-22T18:48:46.979Z,16.20
2017-11-22T18:51:14.533Z,16.20
2017-11-22T18:53:42.049Z,16.20
2017-11-22T18:56:10.331Z,16.20
2017-11-22T18:58:37.939Z,16.10
2017-11-22T19:01:05.488Z,16.20
2017-11-22T19:03:34.244Z,16.20
2017-11-22T19:06:02.408Z,16.20
2017-11-22T19:08:31.099Z,16.20
2017-11-22T19:10:59.841Z,16.30
2017-11-22T19:13:27.400Z,16.20
2017-11-22T19:15:54.987Z,16.20
2017-11-22T19:18:23.723Z,16.30
2017-11-22T19:20:52.104Z,16.20
2017-11-22T19:23:19.623Z,16.30
2017-11-22T19:25:47.947Z,16.30
2017-11-22T19:28:15.501Z,16.30
2017-11-22T19:30:43.020Z,16.30
2017-11-22T19:33:11.336Z,16.30
2017-11-22T19:35:38.958Z,16.20
2017-11-22T19:38:07.333Z,16.30
2017-11-22T19:40:35.676Z,16.30
2017-11-22T19:43:03.221Z,16.30
2017-11-22T19:45:30.740Z,16.30
2017-11-22T19:47:59.043Z,16.30
2017-11-22T19:50:26.630Z,16.30
2017-11-22T19:52:54.209Z,16.30
2017-11-22T19:55:21.851Z,16.30
2017-11-22T19:57:49.496Z,16.30
2017-11-22T20:00:17.081Z,16.20
2017-11-22T20:02:44.712Z,16.30
2017-11-22T20:05:13.178Z,16.30
2017-11-22T20:07:47.503Z,16.30
2017-11-22T20:10:15.102Z,16.30
2017-11-22T20:12:43.046Z,16.30
2017-11-22T20:15:10.589Z,16.30
2017-11-22T20:17:38.183Z,16.30
2017-11-22T20:20:05.733Z,16.30
2017-11-22T20:22:35.037Z,16.40
2017-11-22T20:25:02.684Z,16.40
2017-11-22T20:27:30.224Z,16.50
2017-11-22T20:29:57.822Z,16.50
2017-11-22T20:32:25.429Z,16.50
2017-11-22T20:34:53.955Z,16.50
2017-11-22T20:37:21.516Z,16.50
2017-11-22T20:39:49.115Z,16.50
2017-11-22T20:42:17.435Z,16.60
2017-11-22T20:44:45.277Z,16.60
2017-11-22T20:47:13.609Z,16.60
2017-11-22T20:49:41.478Z,16.60
2017-11-22T20:52:09.011Z,16.70
2017-11-22T20:54:36.591Z,16.70
2017-11-22T20:57:04.158Z,16.70
2017-11-22T20:59:31.702Z,16.70
2017-11-22T21:01:59.292Z,16.70
2017-11-22T21:04:26.853Z,16.80
2017-11-22T21:06:55.202Z,16.80
2017-11-22T21:09:22.764Z,16.70
2017-11-22T21:11:50.275Z,16.80
2017-11-22T21:14:19.010Z,16.80
2017-11-22T21:16:46.549Z,16.80
2017-11-22T21:19:14.111Z,16.90
2017-11-22T21:21:41.664Z,16.90
2017-11-22T21:24:09.276Z,16.90
2017-11-22T21:26:37.719Z,16.90
2017-11-22T21:29:05.271Z,16.90
2017-11-22T21:31:32.828Z,16.90
2017-11-22T21:34:00.377Z,16.90
2017-11-22T21:36:28.676Z,17.00
2017-11-22T21:38:56.212Z,16.90
2017-11-22T21:41:24.484Z,17.00
2017-11-22T21:43:52.775Z,17.00
2017-11-22T21:46:20.356Z,17.00
2017-11-22T21:48:48.126Z,17.00
2017-11-22T21:51:15.696Z,17.00
2017-11-22T21:53:43.559Z,17.00
2017-11-22T21:56:11.122Z,17.00
2017-11-22T21:58:38.662Z,17.00
2017-11-22T22:01:06.240Z,17.00
2017-11-22T22:03:33.765Z,17.00
2017-11-22T22:06:01.271Z,17.00
2017-11-22T22:08:28.803Z,17.00
2017-11-22T22:10:56.327Z,17.00
2017-11-22T22:13:24.609Z,17.00
2017-11-22T22:15:52.923Z,17.00
2017-11-22T22:18:20.427Z,17.00
2017-11-22T22:20:47.955Z,17.00
2017-11-22T22:23:15.492Z,17.00
2017-11-22T22:25:42.992Z,17.00
2017-11-22T22:28:10.621Z,17.00
2017-11-22T22:30:38.172Z,17.00
2017-11-22T22:33:05.695Z,17.00
2017-11-22T22:35:33.975Z,17.00
2017-11-22T22:38:02.288Z,17.00
2017-11-22T22:40:29.832Z,17.00
2017-11-22T22:42:57.827Z,17.00
2017-11-22T22:45:25.426Z,17.00
2017-11-22T22:47:52.944Z,17.00
2017-11-22T22:50:20.487Z,17.00
2017-11-22T22:52:48.031Z,17.00
2017-11-22T22:55:16.327Z,17.00
2017-11-22T22:57:43.855Z,16.90
2017-11-22T23:00:11.408Z,17.00
2017-11-22T23:02:39.718Z,16.90
2017-11-22T23:05:07.259Z,16.90
2017-11-22T23:07:35.577Z,16.90
2017-11-22T23:10:03.172Z,16.90
2017-11-22T23:12:30.687Z,16.90
2017-11-22T23:14:58.243Z,16.90
2017-11-22T23:17:25.799Z,16.90
2017-11-22T23:19:53.342Z,16.90
2017-11-22T23:22:20.888Z,16.90
2017-11-22T23:24:49.190Z,16.90
2017-11-22T23:27:17.077Z,16.90
2017-11-22T23:29:44.640Z,16.90
2017-11-22T23:32:12.191Z,16.90
2017-11-22T23:34:39.751Z,16.90
2017-11-22T23:37:07.332Z,16.90
2017-11-22T23:39:34.846Z,16.90
2017-11-22T23:42:03.176Z,16.90
2017-11-22T23:44:30.735Z,16.80
2017-11-22T23:46:58.264Z,16.90
2017-11-22T23:49:26.652Z,16.90
2017-11-22T23:51:54.971Z,16.90
2017-11-22T23:54:22.504Z,16.90
2017-11-22T23:56:50.023Z,16.90
2017-11-22T23:59:30.637Z,16.90
